Time;durP1;ratioP1;P1;durP2;ratioP2;P2;SDS_P1;SDS_P2;PMS_P1;PMS_P2;Temp;Humidity;BMP_temperature;BMP_pressure;BME280_temperature;BME280_humidity;BME280_pressure;Samples;Min_cycle;Max_cycle;Signal;HPM_P1;HPM_P2
2022/08/14 00:01:10;;;;;;;3.33;3.10;;;24.50;50.40;;;;;;972968;144;28394;-76
2022/08/14 00:03:37;;;;;;;3.40;3.10;;;24.50;50.50;;;;;;973063;144;27243;-75
2022/08/14 00:06:03;;;;;;;4.15;3.72;;;24.40;50.70;;;;;;972186;144;27332;-76
2022/08/14 00:08:29;;;;;;;3.65;3.35;;;24.40;50.90;;;;;;973059;146;27407;-77
2022/08/14 00:10:56;;;;;;;3.75;3.50;;;24.30;50.90;;;;;;972648;147;27319;-75
2022/08/14 00:13:23;;;;;;;3.58;3.27;;;24.30;51.60;;;;;;972647;147;27275;-75
2022/08/14 00:15:50;;;;;;;3.85;3.45;;;24.30;51.30;;;;;;973497;144;27755;-75
2022/08/14 00:18:16;;;;;;;4.00;3.40;;;24.20;51.30;;;;;;973530;144;27360;-75
2022/08/14 00:20:42;;;;;;;4.37;3.87;;;24.20;51.50;;;;;;981675;144;27626;-78
2022/08/14 00:23:09;;;;;;;4.12;3.83;;;24.10;51.50;;;;;;986362;145;27302;-76
2022/08/14 00:25:36;;;;;;;6.35;3.90;;;24.10;51.80;;;;;;985913;144;27302;-75
2022/08/14 00:28:02;;;;;;;4.25;3.95;;;24.10;52.00;;;;;;986082;145;27256;-75
2022/08/14 00:30:29;;;;;;;4.25;3.87;;;24.10;52.30;;;;;;986104;145;27278;-78
2022/08/14 00:32:55;;;;;;;4.28;3.98;;;24.10;52.50;;;;;;984873;145;27372;-76
2022/08/14 00:35:22;;;;;;;4.17;3.87;;;24.10;52.70;;;;;;985715;145;27239;-78
2022/08/14 00:37:49;;;;;;;3.90;3.47;;;24.10;52.80;;;;;;985704;145;27431;-76
2022/08/14 00:40:15;;;;;;;4.42;4.12;;;24.10;52.90;;;;;;985537;143;27338;-75
2022/08/14 00:42:42;;;;;;;4.67;4.37;;;24.10;53.00;;;;;;986353;145;27248;-75
2022/08/14 00:45:08;;;;;;;4.47;4.17;;;24.10;53.10;;;;;;984605;145;27346;-75
2022/08/14 00:47:35;;;;;;;4.25;3.95;;;24.10;53.20;;;;;;985010;145;27295;-78
2022/08/14 00:50:01;;;;;;;4.37;4.08;;;24.20;53.30;;;;;;985591;145;27306;-76
2022/08/14 00:52:28;;;;;;;4.17;3.87;;;24.20;53.30;;;;;;985349;144;27975;-75
2022/08/14 00:54:55;;;;;;;4.60;4.30;;;24.10;53.30;;;;;;987111;143;27256;-76
2022/08/14 00:57:21;;;;;;;15.48;5.30;;;24.10;53.50;;;;;;986565;143;27334;-77
2022/08/14 00:59:48;;;;;;;4.58;4.17;;;24.10;53.70;;;;;;985252;145;27387;-76
2022/08/14 01:02:14;;;;;;;5.03;4.62;;;24.10;53.70;;;;;;985765;143;27295;-75
2022/08/14 01:04:41;;;;;;;4.67;4.28;;;24.10;53.80;;;;;;985733;145;27334;-75
2022/08/14 01:07:08;;;;;;;4.40;4.00;;;24.10;53.90;;;;;;986128;145;27420;-76
2022/08/14 01:09:34;;;;;;;19.50;5.17;;;24.10;53.90;;;;;;985213;145;27423;-76
2022/08/14 01:12:01;;;;;;;5.10;4.70;;;24.10;54.00;;;;;;985058;144;27248;-76
2022/08/14 01:14:27;;;;;;;5.08;4.67;;;24.10;54.00;;;;;;986455;142;27327;-77
2022/08/14 01:16:54;;;;;;;4.47;4.17;;;24.10;54.30;;;;;;986468;145;27311;-76
2022/08/14 01:22:06;;;;;;;4.95;4.55;;;24.10;54.20;;;;;;986195;145;27423;-76
2022/08/14 01:24:32;;;;;;;4.37;4.08;;;24.10;54.70;;;;;;986475;145;27416;-76
2022/08/14 01:26:59;;;;;;;4.65;4.35;;;24.00;54.10;;;;;;985381;145;27294;-76
2022/08/14 01:29:26;;;;;;;4.50;4.20;;;24.00;54.20;;;;;;985795;142;27248;-76
2022/08/14 01:31:52;;;;;;;5.30;4.40;;;23.90;54.20;;;;;;986378;145;27325;-75
2022/08/14 01:34:24;;;;;;;5.37;4.92;;;23.90;54.30;;;;;;985926;145;27307;-76
2022/08/14 01:36:48;;;;;;;4.78;4.37;;;23.90;54.50;;;;;;985772;142;27399;-76
2022/08/14 01:39:14;;;;;;;4.65;4.33;;;23.80;54.60;;;;;;986476;142;27254;-76
2022/08/14 01:41:41;;;;;;;5.30;4.90;;;23.70;54.70;;;;;;985732;143;27311;-77
2022/08/14 01:44:11;;;;;;;4.95;4.53;;;23.70;54.80;;;;;;986179;145;27402;-76
2022/08/14 01:46:34;;;;;;;3.85;3.60;;;23.60;55.00;;;;;;986402;142;27307;-75
2022/08/14 01:49:02;;;;;;;4.87;4.58;;;23.60;55.20;;;;;;985047;144;27216;-77
2022/08/14 01:51:27;;;;;;;5.50;4.67;;;23.50;55.30;;;;;;986298;142;27294;-76
2022/08/14 01:53:54;;;;;;;5.10;4.65;;;23.50;56.00;;;;;;986356;145;27599;-76
2022/08/14 01:56:20;;;;;;;5.37;4.60;;;23.50;55.50;;;;;;985826;145;27322;-76
2022/08/14 01:58:48;;;;;;;4.87;4.47;;;23.40;55.60;;;;;;986400;145;27428;-76
2022/08/14 02:01:14;;;;;;;5.15;4.85;;;23.40;55.60;;;;;;986077;142;27348;-76
2022/08/14 02:03:40;;;;;;;4.47;4.17;;;23.40;55.70;;;;;;986469;145;27253;-75
2022/08/14 02:06:07;;;;;;;4.62;4.33;;;23.30;55.80;;;;;;986207;142;27409;-77
2022/08/14 02:08:36;;;;;;;4.97;4.65;;;23.20;55.80;;;;;;985800;144;27330;-78
2022/08/14 02:11:21;;;;;;;4.10;3.80;;;23.20;55.90;;;;;;985679;142;27298;-76
2022/08/14 02:13:45;;;;;;;4.40;4.10;;;23.10;56.00;;;;;;986692;142;27256;-78
2022/08/14 02:16:11;;;;;;;4.72;4.42;;;23.00;56.10;;;;;;987563;144;27291;-78
2022/08/14 02:18:38;;;;;;;4.83;4.33;;;23.00;56.30;;;;;;988664;142;27284;-78
2022/08/14 02:21:04;;;;;;;4.25;3.83;;;22.80;56.40;;;;;;986239;142;27778;-78
2022/08/14 02:23:31;;;;;;;5.37;4.90;;;22.80;56.60;;;;;;981956;146;27320;-76
2022/08/14 02:25:58;;;;;;;4.87;4.47;;;22.70;56.70;;;;;;979897;145;27414;-75
2022/08/14 02:28:24;;;;;;;4.83;4.45;;;22.60;56.90;;;;;;980007;143;27381;-75
2022/08/14 02:30:51;;;;;;;4.80;4.47;;;22.60;57.00;;;;;;979942;145;27294;-75
2022/08/14 02:33:17;;;;;;;4.55;4.25;;;22.50;57.10;;;;;;979370;145;27388;-75
2022/08/14 02:35:44;;;;;;;5.10;4.67;;;22.50;57.20;;;;;;979887;145;27404;-78
2022/08/14 02:38:10;;;;;;;5.47;5.08;;;22.40;57.40;;;;;;980239;146;27315;-75
2022/08/14 02:40:37;;;;;;;5.47;5.08;;;22.30;57.60;;;;;;980058;143;27319;-75
2022/08/14 02:43:04;;;;;;;5.50;5.10;;;22.30;57.70;;;;;;980493;146;27343;-75
2022/08/14 02:45:33;;;;;;;5.33;4.85;;;22.20;57.80;;;;;;965543;146;27300;-76
2022/08/14 02:47:59;;;;;;;5.00;4.65;;;22.20;57.90;;;;;;980999;144;27344;-74
2022/08/14 02:50:26;;;;;;;5.58;5.08;;;22.10;58.00;;;;;;980681;145;27267;-75
2022/08/14 02:52:53;;;;;;;5.47;5.08;;;22.10;58.10;;;;;;980645;145;27769;-75
2022/08/14 02:55:19;;;;;;;5.45;4.80;;;22.00;58.40;;;;;;980640;145;27340;-74
2022/08/14 02:57:45;;;;;;;5.87;4.67;;;22.00;58.50;;;;;;981259;145;27372;-78
2022/08/14 03:00:12;;;;;;;4.92;4.53;;;22.00;58.70;;;;;;979459;146;27377;-75
2022/08/14 03:02:41;;;;;;;5.42;5.03;;;21.90;58.70;;;;;;979459;146;27430;-75
2022/08/14 03:05:05;;;;;;;5.62;5.12;;;21.90;58.90;;;;;;979841;143;27268;-76
2022/08/14 03:07:32;;;;;;;5.25;4.75;;;21.90;59.20;;;;;;980361;145;27375;-74
2022/08/14 03:09:58;;;;;;;5.53;5.12;;;21.80;59.20;;;;;;981094;145;27248;-75
2022/08/14 03:12:25;;;;;;;5.50;5.05;;;21.80;59.40;;;;;;980387;145;27432;-78
2022/08/14 03:14:52;;;;;;;5.12;4.72;;;21.70;59.40;;;;;;979477;143;27393;-75
2022/08/14 03:17:18;;;;;;;4.95;4.55;;;21.70;59.60;;;;;;980795;145;27244;-75
2022/08/14 03:19:45;;;;;;;5.25;4.85;;;21.70;59.60;;;;;;980285;146;27711;-74
2022/08/14 03:22:12;;;;;;;5.20;4.80;;;21.70;59.70;;;;;;981071;145;27376;-74
2022/08/14 03:24:38;;;;;;;5.03;4.62;;;21.60;59.80;;;;;;979607;143;27319;-78
2022/08/14 03:27:05;;;;;;;4.92;4.62;;;21.60;60.00;;;;;;979913;146;27315;-74
2022/08/14 03:29:31;;;;;;;5.87;5.15;;;21.60;60.00;;;;;;979738;143;27224;-75
2022/08/14 03:31:58;;;;;;;5.37;4.97;;;21.50;60.10;;;;;;979445;145;27657;-76
2022/08/14 03:34:25;;;;;;;5.22;4.80;;;21.40;60.20;;;;;;980556;143;27342;-78
2022/08/14 03:36:55;;;;;;;5.25;4.85;;;21.40;60.30;;;;;;980495;143;27303;-77
2022/08/14 03:39:18;;;;;;;5.92;5.42;;;21.40;60.40;;;;;;979626;143;27420;-75
2022/08/14 03:41:44;;;;;;;5.25;4.85;;;21.30;60.50;;;;;;980643;143;28823;-75
2022/08/14 03:44:11;;;;;;;7.58;6.80;;;21.30;60.70;;;;;;980451;145;27283;-76
2022/08/14 03:46:37;;;;;;;21.12;16.82;;;21.20;61.50;;;;;;980808;145;27237;-74
2022/08/14 03:49:04;;;;;;;19.20;15.90;;;21.20;60.80;;;;;;980472;145;27229;-77
2022/08/14 03:51:31;;;;;;;19.98;16.07;;;21.10;61.00;;;;;;980415;145;27315;-76
2022/08/14 03:53:57;;;;;;;21.37;15.90;;;21.00;61.20;;;;;;980294;145;27315;-74
2022/08/14 03:56:25;;;;;;;18.37;14.50;;;21.00;61.30;;;;;;980420;144;27217;-75
2022/08/14 03:58:50;;;;;;;15.23;12.85;;;20.90;61.40;;;;;;979504;145;27299;-74
2022/08/14 04:01:21;;;;;;;17.73;15.03;;;20.90;61.20;;;;;;980152;143;27324;-75
2022/08/14 04:03:46;;;;;;;14.95;12.03;;;20.80;61.80;;;;;;980038;143;27412;-78
2022/08/14 04:06:13;;;;;;;15.65;11.75;;;20.80;62.00;;;;;;980451;145;27300;-76
2022/08/14 04:08:39;;;;;;;12.68;11.38;;;20.70;62.00;;;;;;979841;145;27380;-74
2022/08/14 04:11:06;;;;;;;11.05;9.48;;;20.70;62.30;;;;;;980402;146;27298;-74
2022/08/14 04:13:34;;;;;;;8.80;8.00;;;20.70;62.50;;;;;;979259;145;27395;-75
2022/08/14 04:16:00;;;;;;;7.97;7.20;;;20.60;62.70;;;;;;980170;143;27329;-77
2022/08/14 04:18:26;;;;;;;8.45;7.60;;;20.60;62.90;;;;;;980949;143;27419;-75
2022/08/14 04:20:52;;;;;;;8.68;7.90;;;20.60;63.00;;;;;;978925;145;27352;-74
2022/08/14 04:23:19;;;;;;;8.50;7.55;;;20.60;63.10;;;;;;980108;142;27258;-75
2022/08/14 04:25:46;;;;;;;8.18;7.37;;;20.60;63.30;;;;;;980686;146;27340;-74
2022/08/14 04:28:13;;;;;;;8.38;7.45;;;20.60;63.50;;;;;;980735;143;27312;-78
2022/08/14 04:30:39;;;;;;;7.95;7.20;;;20.60;63.50;;;;;;980980;143;27399;-76
2022/08/14 04:33:06;;;;;;;7.67;6.97;;;20.50;63.60;;;;;;980038;143;28057;-75
2022/08/14 04:35:32;;;;;;;6.12;5.62;;;20.60;63.90;;;;;;980704;145;27339;-74
2022/08/14 04:43:38;;;;;;;6.15;5.67;;;20.60;64.80;;;;;;980611;145;27374;-78
2022/08/14 04:46:09;;;;;;;6.03;5.53;;;20.60;64.20;;;;;;980596;145;27429;-74
2022/08/14 04:48:36;;;;;;;6.92;5.72;;;20.60;64.20;;;;;;979608;145;27357;-75
2022/08/14 04:51:05;;;;;;;5.87;5.47;;;20.70;64.30;;;;;;979851;145;27256;-75
2022/08/14 04:53:32;;;;;;;5.90;5.30;;;20.70;64.60;;;;;;980167;146;27300;-75
2022/08/14 04:55:58;;;;;;;6.72;5.55;;;20.80;64.80;;;;;;981136;143;27319;-75
2022/08/14 04:58:25;;;;;;;6.22;5.70;;;20.80;64.80;;;;;;979402;146;27461;-74
2022/08/14 05:00:51;;;;;;;5.72;5.33;;;20.90;65.00;;;;;;980142;143;27251;-75
2022/08/14 05:03:21;;;;;;;5.90;5.40;;;21.00;65.20;;;;;;980499;143;27349;-77
2022/08/14 05:05:50;;;;;;;5.95;5.40;;;21.10;65.60;;;;;;980299;146;27350;-77
2022/08/14 05:08:17;;;;;;;5.70;5.20;;;21.30;66.20;;;;;;980396;146;27335;-75
2022/08/14 05:10:43;;;;;;;5.50;5.10;;;21.60;66.70;;;;;;980389;145;27854;-74
2022/08/14 05:13:10;;;;;;;5.28;4.87;;;22.00;67.30;;;;;;980326;146;27538;-75
2022/08/14 05:15:36;;;;;;;5.78;5.28;;;22.40;67.40;;;;;;980907;145;27282;-75
2022/08/14 05:18:12;;;;;;;5.30;4.90;;;23.00;67.30;;;;;;980321;145;27413;-78
2022/08/14 05:20:42;;;;;;;5.80;5.40;;;23.50;66.80;;;;;;978732;143;27274;-75
2022/08/14 05:23:07;;;;;;;5.85;5.40;;;24.20;66.00;;;;;;982264;143;27420;-75
2022/08/14 05:25:34;;;;;;;6.22;5.83;;;24.90;65.00;;;;;;984129;143;27268;-77
2022/08/14 05:28:06;;;;;;;5.20;4.90;;;25.60;64.10;;;;;;984029;145;27307;-75
2022/08/14 05:30:33;;;;;;;5.40;4.90;;;26.20;63.10;;;;;;979836;145;27365;-76
2022/08/14 05:33:00;;;;;;;5.20;4.80;;;26.90;62.10;;;;;;983246;144;27733;-75
2022/08/14 05:35:26;;;;;;;5.28;4.87;;;27.60;61.30;;;;;;983443;143;27428;-76
2022/08/14 05:37:52;;;;;;;5.40;4.90;;;28.30;60.30;;;;;;984187;145;27290;-79
2022/08/14 05:40:19;;;;;;;5.85;5.25;;;29.00;59.40;;;;;;983621;143;27424;-75
2022/08/14 05:42:45;;;;;;;5.05;4.65;;;29.80;58.50;;;;;;983797;145;27299;-77
2022/08/14 05:45:13;;;;;;;5.30;4.92;;;30.50;57.50;;;;;;983450;145;27256;-76
2022/08/14 05:47:39;;;;;;;6.10;5.60;;;31.20;56.50;;;;;;983744;143;27400;-76
2022/08/14 05:50:05;;;;;;;5.65;5.25;;;31.80;55.10;;;;;;982756;145;27244;-76
2022/08/14 05:52:32;;;;;;;5.50;4.87;;;32.40;54.00;;;;;;983367;145;27395;-78
2022/08/14 05:54:59;;;;;;;4.92;4.33;;;32.80;52.90;;;;;;983948;145;27325;-75
2022/08/14 05:57:25;;;;;;;4.97;4.58;;;33.30;52.20;;;;;;984047;143;27332;-77
2022/08/14 05:59:52;;;;;;;4.80;4.50;;;33.70;51.50;;;;;;983576;145;27260;-77
2022/08/14 06:02:18;;;;;;;4.80;3.95;;;34.20;51.60;;;;;;982725;145;27283;-77
2022/08/14 06:04:47;;;;;;;4.87;4.47;;;34.60;50.40;;;;;;983025;143;27345;-79
2022/08/14 06:07:11;;;;;;;5.00;4.50;;;35.10;49.80;;;;;;984575;143;27284;-76
2022/08/14 06:09:38;;;;;;;4.40;4.10;;;35.60;49.10;;;;;;983257;145;27361;-76
2022/08/14 06:12:05;;;;;;;4.47;4.17;;;36.20;48.60;;;;;;984253;145;26198;-77
2022/08/14 06:14:31;;;;;;;4.67;4.17;;;36.80;47.70;;;;;;983750;145;27284;-76
2022/08/14 06:16:58;;;;;;;4.20;3.95;;;37.30;47.00;;;;;;982930;143;26158;-79
2022/08/14 06:19:24;;;;;;;4.55;4.25;;;37.80;46.00;;;;;;983890;145;26220;-76
2022/08/14 06:21:51;;;;;;;4.17;3.90;;;38.20;45.20;;;;;;983347;145;26319;-77
2022/08/14 06:24:19;;;;;;;3.98;3.70;;;38.70;44.60;;;;;;982950;145;26298;-76
2022/08/14 06:26:44;;;;;;;4.12;3.83;;;39.00;44.00;;;;;;982872;145;26158;-76
2022/08/14 06:29:11;;;;;;;4.00;3.80;;;39.40;43.40;;;;;;983186;145;27720;-76
2022/08/14 06:31:37;;;;;;;3.70;3.50;;;39.90;42.60;;;;;;983386;145;26157;-78
2022/08/14 06:34:04;;;;;;;4.22;3.83;;;40.20;42.00;;;;;;983480;144;26248;-77
2022/08/14 06:36:31;;;;;;;3.90;3.60;;;40.50;41.50;;;;;;983010;145;27308;-76
2022/08/14 06:38:57;;;;;;;3.83;3.60;;;40.90;40.80;;;;;;983411;143;26169;-77
2022/08/14 06:41:24;;;;;;;3.50;3.30;;;41.30;40.10;;;;;;965281;148;27386;-77
2022/08/14 06:43:50;;;;;;;3.35;3.05;;;41.50;39.40;;;;;;956732;147;26273;-77
2022/08/14 06:46:17;;;;;;;3.50;3.20;;;41.80;39.10;;;;;;971240;147;26216;-79
2022/08/14 06:48:44;;;;;;;3.40;3.20;;;42.10;38.50;;;;;;984130;143;26222;-77
2022/08/14 06:51:10;;;;;;;3.22;3.02;;;42.30;38.00;;;;;;983432;143;26273;-77
2022/08/14 06:53:37;;;;;;;3.87;3.58;;;42.50;37.70;;;;;;983571;143;26174;-78
2022/08/14 06:56:03;;;;;;;3.30;3.10;;;42.80;37.30;;;;;;965777;148;26246;-77
2022/08/14 06:58:30;;;;;;;3.05;2.90;;;43.10;36.70;;;;;;983556;143;26381;-78
2022/08/14 07:06:26;;;;;;;3.17;2.98;;;43.60;35.20;;;;;;971840;146;26238;-77
2022/08/14 07:08:53;;;;;;;3.55;3.35;;;43.70;34.60;;;;;;970861;145;26365;-77
2022/08/14 07:11:19;;;;;;;3.05;2.85;;;43.60;34.30;;;;;;972220;147;26157;-78
2022/08/14 07:13:46;;;;;;;3.72;3.50;;;43.50;34.10;;;;;;971575;147;26247;-77
2022/08/14 07:16:12;;;;;;;3.87;3.58;;;43.40;33.70;;;;;;971605;146;26882;-77
2022/08/14 07:18:40;;;;;;;3.27;3.05;;;43.30;33.50;;;;;;971384;146;26201;-78
2022/08/14 07:21:06;;;;;;;3.40;3.20;;;43.20;33.70;;;;;;965535;148;26185;-78
2022/08/14 07:23:32;;;;;;;3.12;2.92;;;43.10;33.70;;;;;;965820;148;26218;-78
2022/08/14 07:25:59;;;;;;;3.30;3.10;;;43.10;33.60;;;;;;983881;145;26245;-79
2022/08/14 07:28:25;;;;;;;5.12;3.30;;;43.10;33.60;;;;;;956990;146;26272;-78
2022/08/14 07:30:56;;;;;;;3.50;3.20;;;43.10;33.40;;;;;;971733;147;26233;-78
2022/08/14 07:33:18;;;;;;;3.02;2.83;;;43.10;33.50;;;;;;981359;145;26174;-78
2022/08/14 07:35:45;;;;;;;3.77;3.10;;;43.30;33.50;;;;;;966935;145;26278;-78
2022/08/14 07:38:12;;;;;;;3.50;3.30;;;43.50;33.20;;;;;;968601;145;26310;-78
2022/08/14 07:40:38;;;;;;;5.15;3.42;;;43.50;32.50;;;;;;962706;147;26304;-78
2022/08/14 07:43:05;;;;;;;3.80;3.15;;;43.60;32.40;;;;;;983204;145;28562;-78
2022/08/14 07:45:32;;;;;;;3.50;3.30;;;43.70;32.40;;;;;;957543;147;26188;-79
2022/08/14 07:47:58;;;;;;;3.02;2.83;;;43.70;32.30;;;;;;970482;147;26247;-78
2022/08/14 07:50:25;;;;;;;3.35;3.15;;;43.80;32.20;;;;;;972481;147;26178;-79
2022/08/14 07:52:51;;;;;;;3.22;3.02;;;43.90;32.00;;;;;;983241;144;26245;-78
2022/08/14 07:55:18;;;;;;;3.00;2.90;;;44.00;31.10;;;;;;984007;143;26313;-78
2022/08/14 07:57:44;;;;;;;3.30;3.10;;;44.20;31.50;;;;;;957422;146;26213;-78
2022/08/14 08:00:14;;;;;;;3.27;3.08;;;44.20;31.30;;;;;;982760;144;26273;-78
2022/08/14 08:02:41;;;;;;;3.15;2.95;;;44.30;31.10;;;;;;982297;145;26286;-79
2022/08/14 08:05:07;;;;;;;3.22;2.92;;;44.30;31.10;;;;;;982667;145;26209;-79
2022/08/14 08:07:34;;;;;;;2.90;2.70;;;44.50;31.10;;;;;;957182;149;26331;-79
2022/08/14 08:10:00;;;;;;;2.95;2.75;;;44.60;30.90;;;;;;971030;147;28365;-78
2022/08/14 08:12:27;;;;;;;3.05;2.85;;;44.90;30.90;;;;;;970801;147;26117;-78
2022/08/14 08:14:54;;;;;;;2.98;2.77;;;45.10;30.60;;;;;;982618;145;26201;-78
2022/08/14 08:17:21;;;;;;;2.85;2.72;;;45.40;30.30;;;;;;956504;147;26211;-78
2022/08/14 08:19:47;;;;;;;3.05;2.85;;;45.70;30.00;;;;;;970898;146;26240;-78
2022/08/14 08:22:13;;;;;;;3.05;2.85;;;46.00;30.00;;;;;;981186;143;26225;-78
2022/08/14 08:24:40;;;;;;;3.10;2.80;;;46.30;29.80;;;;;;966431;147;26254;-78
2022/08/14 08:27:15;;;;;;;2.65;2.52;;;46.70;29.60;;;;;;967221;145;26226;-78
2022/08/14 08:29:42;;;;;;;3.20;2.92;;;47.00;29.10;;;;;;983597;145;26278;-78
2022/08/14 08:32:09;;;;;;;2.55;2.45;;;47.40;29.00;;;;;;985503;145;26234;-80
2022/08/14 08:34:44;;;;;;;2.67;2.50;;;47.60;28.70;;;;;;985400;145;26217;-78
2022/08/14 08:37:11;;;;;;;8.10;2.62;;;47.90;28.50;;;;;;985034;145;26186;-80
2022/08/14 08:39:44;;;;;;;2.77;2.62;;;48.30;28.20;;;;;;984901;143;26180;-78
2022/08/14 08:42:10;;;;;;;2.90;2.70;;;48.50;27.80;;;;;;984079;145;26302;-79
2022/08/14 08:44:37;;;;;;;3.00;2.45;;;48.70;27.40;;;;;;984296;144;26304;-79
2022/08/14 08:47:06;;;;;;;2.60;2.45;;;48.70;27.20;;;;;;986514;145;26337;-78
2022/08/14 08:49:41;;;;;;;2.52;2.42;;;48.80;27.00;;;;;;986370;145;26224;-79
2022/08/14 08:52:05;;;;;;;2.52;2.42;;;48.80;27.00;;;;;;985257;145;26163;-80
2022/08/14 08:54:31;;;;;;;2.67;2.47;;;48.90;26.90;;;;;;985895;145;26192;-79
2022/08/14 08:56:58;;;;;;;2.33;2.22;;;49.00;26.80;;;;;;986456;145;26302;-78
2022/08/14 08:59:27;;;;;;;2.70;2.50;;;49.10;26.60;;;;;;984861;145;26192;-79
2022/08/14 09:02:00;;;;;;;2.30;2.20;;;49.20;26.30;;;;;;986222;145;26181;-78
2022/08/14 09:04:26;;;;;;;3.00;2.72;;;49.20;26.10;;;;;;985583;145;26127;-79
2022/08/14 09:06:53;;;;;;;2.40;2.20;;;49.30;25.90;;;;;;986447;145;26265;-80
2022/08/14 09:09:19;;;;;;;2.42;2.30;;;49.30;25.80;;;;;;988021;143;26316;-79
2022/08/14 09:11:46;;;;;;;2.30;2.20;;;49.30;25.80;;;;;;988043;145;26244;-80
2022/08/14 09:14:13;;;;;;;2.72;2.37;;;49.30;25.60;;;;;;985109;145;26190;-78
2022/08/14 09:16:39;;;;;;;3.42;2.37;;;49.20;25.30;;;;;;985134;145;26201;-79
2022/08/14 09:19:06;;;;;;;2.33;2.22;;;49.20;25.20;;;;;;984375;145;26269;-79
2022/08/14 09:21:33;;;;;;;2.47;2.37;;;49.10;25.10;;;;;;983814;145;26232;-79
2022/08/14 09:23:59;;;;;;;2.20;2.10;;;48.80;25.00;;;;;;967051;147;26325;-79
2022/08/14 09:26:25;;;;;;;2.00;1.90;;;48.60;25.00;;;;;;967200;145;26739;-78
2022/08/14 09:28:52;;;;;;;2.52;2.33;;;48.30;25.10;;;;;;969665;145;26273;-79
2022/08/14 09:31:19;;;;;;;2.65;2.45;;;48.10;25.10;;;;;;985760;143;26281;-79
2022/08/14 09:34:03;;;;;;;2.25;2.15;;;47.80;25.10;;;;;;973600;145;26317;-80
2022/08/14 09:37:04;;;;;;;2.70;2.50;;;47.50;25.20;;;;;;968345;148;26357;-78
2022/08/14 09:39:30;;;;;;;3.70;2.50;;;47.20;25.30;;;;;;983536;143;26797;-78
2022/08/14 09:42:03;;;;;;;3.98;2.72;;;46.90;25.40;;;;;;985577;145;26205;-78
2022/08/14 09:44:44;;;;;;;2.37;2.20;;;46.50;25.70;;;;;;967436;145;26354;-78
2022/08/14 09:47:11;;;;;;;2.70;2.50;;;46.30;25.90;;;;;;984721;143;26204;-78
2022/08/14 09:49:37;;;;;;;2.40;2.20;;;46.10;25.90;;;;;;986479;143;26561;-79
2022/08/14 09:52:09;;;;;;;2.55;2.37;;;46.00;25.90;;;;;;985638;143;26224;-78
2022/08/14 09:54:39;;;;;;;2.65;2.55;;;45.90;25.90;;;;;;985256;144;26328;-78
2022/08/14 09:57:08;;;;;;;2.67;2.47;;;45.80;26.20;;;;;;985900;145;26146;-79
2022/08/14 09:59:45;;;;;;;2.37;2.27;;;45.50;25.70;;;;;;985730;143;26215;-80
2022/08/14 10:02:20;;;;;;;2.30;2.20;;;45.30;25.80;;;;;;984082;143;26316;-79
2022/08/14 10:04:47;;;;;;;2.22;2.05;;;45.00;25.80;;;;;;965892;148;26241;-79
2022/08/14 10:07:13;;;;;;;2.90;2.70;;;44.70;25.90;;;;;;985438;145;26126;-78
2022/08/14 10:09:45;;;;;;;3.00;2.50;;;44.50;26.30;;;;;;967883;148;26183;-80
2022/08/14 10:12:12;;;;;;;3.02;2.72;;;44.20;25.80;;;;;;983892;143;26325;-80
2022/08/14 10:14:40;;;;;;;2.98;2.35;;;43.80;25.80;;;;;;985137;145;26225;-79
2022/08/14 10:17:05;;;;;;;2.72;2.52;;;43.40;25.80;;;;;;986199;145;26205;-78
2022/08/14 10:19:31;;;;;;;2.50;2.40;;;43.00;26.00;;;;;;985367;144;27365;-79
2022/08/14 10:22:01;;;;;;;3.10;2.75;;;42.50;26.10;;;;;;986051;143;27319;-78
2022/08/14 10:24:28;;;;;;;2.75;2.55;;;42.00;26.20;;;;;;985805;144;26229;-80
2022/08/14 10:26:54;;;;;;;2.92;2.65;;;41.50;26.30;;;;;;984901;145;26271;-78
2022/08/14 10:29:21;;;;;;;2.67;2.47;;;41.10;26.50;;;;;;982526;143;26205;-78
2022/08/14 10:31:47;;;;;;;2.70;2.50;;;40.80;26.70;;;;;;980809;143;27366;-79
2022/08/14 10:34:14;;;;;;;2.83;2.52;;;40.40;26.70;;;;;;979876;143;26210;-78
2022/08/14 10:36:40;;;;;;;3.00;2.75;;;40.00;26.80;;;;;;980621;143;27384;-79
2022/08/14 10:39:16;;;;;;;2.65;2.55;;;39.60;26.80;;;;;;982756;144;27410;-79
2022/08/14 10:41:43;;;;;;;2.87;2.67;;;39.20;27.00;;;;;;983689;145;27375;-77
2022/08/14 10:44:13;;;;;;;2.87;2.70;;;38.80;27.30;;;;;;984153;144;27328;-78
2022/08/14 10:46:41;;;;;;;2.80;2.60;;;38.40;27.40;;;;;;982236;144;27303;-78
2022/08/14 10:49:08;;;;;;;2.47;2.37;;;38.00;27.70;;;;;;982532;145;27326;-78
2022/08/14 10:51:35;;;;;;;2.92;2.72;;;37.60;28.00;;;;;;982976;145;27405;-78
2022/08/14 10:54:01;;;;;;;2.52;2.35;;;37.30;28.00;;;;;;983465;144;27300;-78
2022/08/14 10:56:29;;;;;;;2.30;2.15;;;37.00;27.90;;;;;;982530;144;27720;-77
2022/08/14 10:58:55;;;;;;;2.40;1.90;;;36.80;28.00;;;;;;983319;145;27254;-77
2022/08/14 11:01:21;;;;;;;2.75;2.55;;;36.60;28.00;;;;;;982253;144;27837;-78
2022/08/14 11:03:48;;;;;;;2.15;2.00;;;36.50;28.20;;;;;;982143;145;27303;-77
2022/08/14 11:06:21;;;;;;;2.10;2.00;;;36.40;28.20;;;;;;983767;144;27310;-77
2022/08/14 11:08:44;;;;;;;2.33;2.22;;;36.30;28.30;;;;;;983458;143;27264;-77
2022/08/14 11:11:11;;;;;;;2.08;1.98;;;36.20;28.30;;;;;;984155;144;27344;-78
2022/08/14 11:13:37;;;;;;;2.40;2.20;;;36.20;28.60;;;;;;983895;145;27795;-78
2022/08/14 11:16:03;;;;;;;2.22;2.12;;;36.10;28.70;;;;;;983029;144;27300;-78
2022/08/14 11:18:31;;;;;;;2.33;2.22;;;36.00;28.80;;;;;;982676;143;27399;-78
2022/08/14 11:20:58;;;;;;;2.62;2.42;;;35.90;29.00;;;;;;983688;143;27324;-79
2022/08/14 11:23:32;;;;;;;2.25;2.15;;;35.80;29.10;;;;;;984071;143;27232;-78
2022/08/14 11:25:58;;;;;;;4.00;2.02;;;35.80;29.10;;;;;;984006;144;27265;-78
2022/08/14 11:28:25;;;;;;;2.17;2.05;;;35.80;29.10;;;;;;982682;145;27485;-78
2022/08/14 11:30:52;;;;;;;2.45;2.35;;;35.80;29.00;;;;;;983516;143;27403;-78
2022/08/14 11:33:21;;;;;;;2.27;2.17;;;35.80;29.10;;;;;;982812;143;27364;-78
2022/08/14 11:35:48;;;;;;;2.20;2.10;;;35.70;29.00;;;;;;982842;145;27365;-79
2022/08/14 11:38:14;;;;;;;2.30;2.10;;;35.70;29.00;;;;;;983457;143;27349;-78
2022/08/14 11:40:42;;;;;;;2.25;2.15;;;35.60;29.00;;;;;;983192;143;27363;-78
2022/08/14 11:43:07;;;;;;;2.10;2.00;;;35.50;29.10;;;;;;982932;144;27408;-79
2022/08/14 11:45:34;;;;;;;2.50;2.30;;;35.40;29.20;;;;;;983155;145;27327;-78
2022/08/14 11:48:00;;;;;;;2.65;2.40;;;35.30;29.30;;;;;;982572;145;27298;-78
2022/08/14 11:50:30;;;;;;;2.50;2.30;;;35.30;29.40;;;;;;983637;145;27796;-78
2022/08/14 11:52:56;;;;;;;3.17;2.20;;;35.20;29.60;;;;;;984073;144;27392;-78
2022/08/14 11:55:26;;;;;;;2.17;2.08;;;35.20;29.70;;;;;;983709;144;27335;-78
2022/08/14 11:58:00;;;;;;;2.50;2.30;;;35.10;29.80;;;;;;982530;144;27253;-78
2022/08/14 12:00:25;;;;;;;2.30;2.20;;;35.10;29.80;;;;;;983548;144;27333;-78
2022/08/14 12:02:55;;;;;;;2.60;2.50;;;35.00;29.80;;;;;;982381;144;27276;-79
2022/08/14 12:05:33;;;;;;;2.60;2.40;;;34.90;29.90;;;;;;982981;145;27329;-77
2022/08/14 12:08:00;;;;;;;3.02;2.37;;;34.90;30.00;;;;;;983839;145;27345;-78
2022/08/14 12:10:28;;;;;;;2.50;2.17;;;34.80;30.00;;;;;;982866;144;27366;-78
2022/08/14 12:12:54;;;;;;;2.47;2.37;;;34.70;30.00;;;;;;982865;143;27388;-78
2022/08/14 12:15:28;;;;;;;2.45;2.27;;;34.60;30.20;;;;;;983017;143;27285;-78
2022/08/14 12:17:55;;;;;;;2.20;2.10;;;34.60;30.50;;;;;;958768;145;27315;-78
2022/08/14 12:20:23;;;;;;;2.50;2.30;;;34.50;30.40;;;;;;982411;143;27238;-78
2022/08/14 12:22:48;;;;;;;2.37;2.27;;;34.50;30.30;;;;;;981711;145;27303;-78
2022/08/14 12:25:14;;;;;;;2.33;2.22;;;34.40;30.30;;;;;;983223;143;27324;-78
2022/08/14 12:27:41;;;;;;;2.30;2.20;;;34.50;30.70;;;;;;981306;145;27341;-78
2022/08/14 12:30:08;;;;;;;2.52;2.33;;;34.40;30.60;;;;;;980134;145;27398;-78
2022/08/14 12:32:45;;;;;;;2.70;2.50;;;34.40;30.80;;;;;;979630;143;27297;-78
2022/08/14 12:35:10;;;;;;;2.77;2.58;;;34.40;30.80;;;;;;979274;144;27261;-77
2022/08/14 12:37:37;;;;;;;2.40;2.30;;;34.50;31.00;;;;;;979591;145;27292;-78
2022/08/14 12:40:09;;;;;;;2.62;2.52;;;34.50;31.20;;;;;;978483;143;27325;-78
2022/08/14 12:42:35;;;;;;;3.02;2.83;;;34.60;31.20;;;;;;978266;144;27430;-78
2022/08/14 12:45:02;;;;;;;2.72;2.52;;;34.60;31.10;;;;;;979321;144;27260;-78
2022/08/14 12:47:30;;;;;;;3.22;3.02;;;34.70;31.30;;;;;;979313;143;27406;-78
2022/08/14 12:49:55;;;;;;;2.72;2.52;;;34.70;31.40;;;;;;979619;143;27746;-79
2022/08/14 12:52:33;;;;;;;3.05;2.85;;;34.70;31.30;;;;;;979378;143;27285;-80
2022/08/14 12:55:05;;;;;;;5.47;2.72;;;34.70;31.50;;;;;;980521;145;27317;-78
2022/08/14 12:57:42;;;;;;;2.47;2.27;;;34.70;31.40;;;;;;980298;146;27329;-78
2022/08/14 13:00:17;;;;;;;2.77;2.58;;;34.70;31.90;;;;;;979111;143;27389;-78